Time;durP1;ratioP1;P1;durP2;ratioP2;P2;SDS_P1;SDS_P2;PMS_P1;PMS_P2;Temp;Humidity;BMP_temperature;BMP_pressure;BME280_temperature;BME280_humidity;BME280_pressure;Samples;Min_cycle;Max_cycle;Signal;HPM_P1;HPM_P2
2024/01/15 00:00:04;;;;;;;15.27;2.78;;;3.50;99.90;;;;;;5019992;28;20196;-42
2024/01/15 00:02:36;;;;;;;9.43;2.13;;;3.60;99.90;;;;;;5020185;28;20747;-46
2024/01/15 00:05:02;;;;;;;7.00;1.52;;;3.70;99.90;;;;;;5020120;28;20211;-48
2024/01/15 00:07:28;;;;;;;8.77;1.75;;;3.60;99.90;;;;;;5016785;28;21189;-43
2024/01/15 00:09:54;;;;;;;15.40;2.40;;;3.30;99.90;;;;;;5019900;28;20191;-50
2024/01/15 00:12:20;;;;;;;12.35;2.35;;;3.10;99.90;;;;;;5020143;28;20195;-43
2024/01/15 00:14:45;;;;;;;10.65;1.90;;;2.90;99.90;;;;;;5020186;28;21169;-43
2024/01/15 00:17:12;;;;;;;15.05;2.25;;;2.80;99.90;;;;;;5020076;28;20320;-43
2024/01/15 00:19:38;;;;;;;8.98;1.85;;;2.70;99.90;;;;;;5019744;28;20219;-42
2024/01/15 00:22:04;;;;;;;6.97;1.60;;;2.70;99.90;;;;;;5020263;28;20664;-45
2024/01/15 00:24:30;;;;;;;3.85;1.30;;;2.70;99.90;;;;;;5019656;28;20263;-41
2024/01/15 00:26:56;;;;;;;5.28;1.50;;;2.60;99.90;;;;;;5020523;28;20571;-46
2024/01/15 00:29:22;;;;;;;4.72;1.38;;;2.60;99.90;;;;;;5023552;28;20207;-45
2024/01/15 00:31:48;;;;;;;6.65;1.45;;;2.60;99.90;;;;;;5023738;28;20215;-40
2024/01/15 00:34:14;;;;;;;7.43;1.58;;;2.60;99.90;;;;;;5023757;28;20652;-49
2024/01/15 00:36:39;;;;;;;6.97;1.48;;;2.60;99.90;;;;;;5019258;28;20196;-44
2024/01/15 00:39:05;;;;;;;13.02;2.08;;;2.60;99.90;;;;;;5023602;28;20196;-48
2024/01/15 00:41:32;;;;;;;12.27;1.73;;;2.60;99.90;;;;;;5018500;28;20184;-41
2024/01/15 00:43:57;;;;;;;10.40;2.20;;;2.60;99.90;;;;;;5023364;28;20218;-51
2024/01/15 00:46:23;;;;;;;9.68;2.67;;;2.60;99.90;;;;;;5023179;28;20648;-47
2024/01/15 00:48:49;;;;;;;5.85;1.50;;;2.60;99.90;;;;;;5023047;28;20618;-42
2024/01/15 00:51:15;;;;;;;12.98;2.08;;;2.70;99.90;;;;;;5023307;28;20298;-45
2024/01/15 00:53:41;;;;;;;10.52;2.08;;;2.70;99.90;;;;;;5017641;28;20192;-41
2024/01/15 00:56:07;;;;;;;18.15;2.97;;;2.80;99.90;;;;;;5023274;28;20196;-41
2024/01/15 00:58:33;;;;;;;14.75;2.55;;;2.90;99.90;;;;;;5022744;28;20219;-46
2024/01/15 01:00:59;;;;;;;16.27;2.17;;;2.90;99.90;;;;;;5022978;28;20648;-45
2024/01/15 01:03:24;;;;;;;10.93;2.00;;;3.00;99.90;;;;;;4992281;28;21457;-40
2024/01/15 01:05:50;;;;;;;10.57;2.03;;;3.00;99.90;;;;;;5022578;28;20279;-45
2024/01/15 01:08:16;;;;;;;16.40;2.33;;;3.00;99.90;;;;;;5023177;28;20211;-42
2024/01/15 01:10:42;;;;;;;12.82;2.17;;;3.00;99.90;;;;;;5022939;28;20206;-50
2024/01/15 01:13:09;;;;;;;17.40;2.97;;;3.00;99.90;;;;;;5022929;28;20191;-46
2024/01/15 01:15:35;;;;;;;13.75;2.50;;;2.90;99.90;;;;;;5022331;28;20215;-44
2024/01/15 01:18:00;;;;;;;17.17;2.47;;;2.90;99.90;;;;;;5022557;28;20208;-48
2024/01/15 01:20:26;;;;;;;26.85;3.75;;;2.90;99.90;;;;;;5018963;28;20202;-44
2024/01/15 01:22:52;;;;;;;14.48;2.88;;;2.80;99.90;;;;;;5017077;28;20192;-43
2024/01/15 01:25:18;;;;;;;13.20;2.50;;;2.90;99.90;;;;;;5022204;28;20212;-40
2024/01/15 01:27:44;;;;;;;21.80;2.88;;;2.80;99.90;;;;;;5022151;28;20325;-40
2024/01/15 01:30:10;;;;;;;18.60;2.80;;;2.90;99.90;;;;;;5022457;28;20192;-44
2024/01/15 01:32:36;;;;;;;22.83;2.80;;;2.90;99.90;;;;;;5018532;28;20275;-45
2024/01/15 01:35:02;;;;;;;17.05;3.38;;;3.00;99.90;;;;;;5017805;28;20200;-44
2024/01/15 01:37:28;;;;;;;16.02;2.55;;;3.00;99.90;;;;;;5017179;28;20230;-43
2024/01/15 01:39:54;;;;;;;15.45;2.95;;;3.10;99.90;;;;;;5022261;28;20195;-46
2024/01/15 01:42:20;;;;;;;13.43;3.00;;;3.10;99.90;;;;;;5022187;28;20245;-44
2024/01/15 01:44:46;;;;;;;14.82;3.13;;;3.10;99.90;;;;;;5022129;28;20640;-43
2024/01/15 01:47:12;;;;;;;12.23;2.63;;;3.10;99.90;;;;;;5022227;28;20184;-46
2024/01/15 01:49:38;;;;;;;15.52;2.67;;;3.10;99.90;;;;;;5021911;28;20560;-42
2024/01/15 01:52:07;;;;;;;12.75;2.47;;;3.10;99.90;;;;;;5022369;28;20192;-48
2024/01/15 01:54:33;;;;;;;15.25;2.25;;;3.10;99.90;;;;;;5021870;28;20222;-41
2024/01/15 01:57:00;;;;;;;12.27;2.45;;;3.10;99.90;;;;;;5022078;28;20223;-50
2024/01/15 01:59:27;;;;;;;14.82;2.97;;;3.20;99.90;;;;;;5021802;28;20253;-45
2024/01/15 02:01:54;;;;;;;12.50;2.55;;;3.20;99.90;;;;;;5021712;28;20203;-45
2024/01/15 02:04:23;;;;;;;20.67;2.67;;;3.30;99.90;;;;;;5021600;28;20242;-42
2024/01/15 02:06:50;;;;;;;16.45;2.50;;;3.30;99.90;;;;;;5006077;28;20299;-41
2024/01/15 02:09:20;;;;;;;18.58;3.08;;;3.40;99.90;;;;;;5021837;28;20181;-44
2024/01/15 02:11:49;;;;;;;19.63;2.70;;;3.40;99.90;;;;;;5021387;28;20230;-42
2024/01/15 02:14:15;;;;;;;14.48;2.70;;;3.50;99.90;;;;;;5021726;28;20192;-47
2024/01/15 02:16:41;;;;;;;23.02;2.95;;;3.60;99.90;;;;;;5021611;28;20199;-42
2024/01/15 02:19:07;;;;;;;16.67;2.90;;;3.60;99.90;;;;;;5022193;28;20195;-47
2024/01/15 02:21:33;;;;;;;16.17;2.92;;;3.70;99.90;;;;;;5021358;28;20624;-48
2024/01/15 02:24:04;;;;;;;18.02;2.72;;;3.70;99.90;;;;;;5021088;28;20756;-45
2024/01/15 02:26:30;;;;;;;18.73;2.83;;;3.70;99.90;;;;;;5021365;28;20192;-47
2024/01/15 02:28:56;;;;;;;19.13;3.42;;;3.70;99.90;;;;;;5021283;28;20200;-38
2024/01/15 02:31:21;;;;;;;23.35;3.50;;;3.80;99.90;;;;;;5017149;28;20291;-41
2024/01/15 02:33:47;;;;;;;15.48;2.55;;;3.80;99.90;;;;;;5021426;28;20243;-47
2024/01/15 02:36:13;;;;;;;14.75;3.25;;;3.80;99.90;;;;;;5021443;28;20188;-44
2024/01/15 02:38:39;;;;;;;20.92;2.90;;;3.80;99.90;;;;;;5013331;28;20653;-44
2024/01/15 02:41:05;;;;;;;19.30;3.20;;;3.90;99.90;;;;;;5021230;28;20196;-41
2024/01/15 02:43:31;;;;;;;11.45;2.50;;;3.90;99.90;;;;;;5021354;28;20179;-45
2024/01/15 02:45:57;;;;;;;12.70;2.70;;;3.90;99.90;;;;;;4999477;28;20227;-43
2024/01/15 02:48:22;;;;;;;10.57;2.38;;;4.00;99.90;;;;;;5020993;28;20188;-47
2024/01/15 02:50:48;;;;;;;14.48;2.28;;;4.00;99.90;;;;;;5020975;28;20188;-42
2024/01/15 02:53:14;;;;;;;14.55;2.22;;;4.00;99.90;;;;;;5021193;28;20548;-45
2024/01/15 02:55:40;;;;;;;14.48;2.50;;;4.00;99.90;;;;;;5016098;28;20192;-49
2024/01/15 02:58:07;;;;;;;16.50;2.83;;;3.90;99.90;;;;;;5021043;28;20699;-40
2024/01/15 03:00:33;;;;;;;13.70;2.35;;;3.90;99.90;;;;;;5020798;28;20224;-44
2024/01/15 03:02:59;;;;;;;14.50;2.47;;;3.80;99.90;;;;;;5020978;28;20191;-45
2024/01/15 03:05:25;;;;;;;6.85;1.80;;;3.80;99.90;;;;;;5020763;28;20241;-49
2024/01/15 03:07:51;;;;;;;12.98;2.25;;;3.80;99.90;;;;;;5020897;28;20302;-49
2024/01/15 03:10:17;;;;;;;8.60;2.03;;;3.70;99.90;;;;;;5017174;28;20191;-44
2024/01/15 03:12:43;;;;;;;17.17;2.25;;;3.70;99.90;;;;;;5020832;28;20741;-49
2024/01/15 03:15:09;;;;;;;7.60;1.67;;;3.70;99.90;;;;;;5020400;28;20557;-44
2024/01/15 03:17:35;;;;;;;19.20;2.45;;;3.70;99.90;;;;;;5020581;28;20192;-47
2024/01/15 03:20:02;;;;;;;10.82;2.25;;;3.70;99.90;;;;;;4998502;28;20199;-45
2024/01/15 03:22:28;;;;;;;14.80;2.17;;;3.70;99.90;;;;;;5020621;28;20274;-46
2024/01/15 03:24:54;;;;;;;23.75;2.97;;;3.80;99.90;;;;;;5017182;28;20218;-40
2024/01/15 03:27:20;;;;;;;18.95;2.63;;;3.80;99.90;;;;;;5020901;28;20242;-48
2024/01/15 03:29:46;;;;;;;14.90;2.50;;;3.90;99.90;;;;;;5020237;28;20195;-43
2024/01/15 03:32:11;;;;;;;18.15;2.90;;;3.90;99.90;;;;;;5020771;28;20267;-42
2024/01/15 03:34:37;;;;;;;17.88;3.05;;;3.90;99.90;;;;;;5020331;28;20208;-42
2024/01/15 03:37:03;;;;;;;14.60;2.65;;;4.00;99.90;;;;;;5004785;28;20290;-42
2024/01/15 03:39:29;;;;;;;21.65;3.40;;;3.90;99.90;;;;;;5020770;28;20196;-45
2024/01/15 03:41:55;;;;;;;22.85;3.42;;;4.00;99.90;;;;;;5019914;28;20206;-45
2024/01/15 03:44:21;;;;;;;21.00;3.47;;;4.00;99.90;;;;;;5020236;28;20216;-39
2024/01/15 03:46:47;;;;;;;19.65;3.47;;;4.00;99.90;;;;;;5020663;28;20196;-48
2024/01/15 03:49:13;;;;;;;18.33;3.53;;;4.00;99.90;;;;;;5020426;28;20183;-46
2024/01/15 03:51:39;;;;;;;19.92;2.90;;;4.00;99.90;;;;;;5020455;28;20184;-46
2024/01/15 03:54:04;;;;;;;19.17;3.20;;;4.00;99.90;;;;;;5012163;28;20213;-49
2024/01/15 03:56:30;;;;;;;26.58;3.30;;;4.10;99.90;;;;;;5020627;28;20238;-44
2024/01/15 03:58:56;;;;;;;20.60;2.85;;;4.00;99.90;;;;;;5020248;28;20609;-47
2024/01/15 04:01:22;;;;;;;22.02;2.90;;;4.00;99.90;;;;;;5023549;28;20188;-39
2024/01/15 04:03:48;;;;;;;15.02;2.85;;;4.10;99.90;;;;;;5023894;28;20183;-46
2024/01/15 04:06:14;;;;;;;13.05;2.58;;;4.10;99.90;;;;;;5023483;28;20245;-46
2024/01/15 04:08:39;;;;;;;17.48;2.95;;;4.00;99.90;;;;;;5024276;28;20188;-45
2024/01/15 04:11:06;;;;;;;13.18;2.38;;;4.00;99.90;;;;;;5024115;28;20233;-48
2024/01/15 04:13:35;;;;;;;18.70;2.60;;;4.10;99.90;;;;;;5024238;28;20191;-46
2024/01/15 04:16:01;;;;;;;12.07;2.10;;;4.10;99.90;;;;;;5024020;28;20196;-42
2024/01/15 04:18:27;;;;;;;7.93;1.77;;;4.10;99.90;;;;;;5023434;28;20213;-49
2024/01/15 04:20:52;;;;;;;4.90;1.50;;;4.20;99.90;;;;;;5024239;28;20191;-44
2024/01/15 04:23:18;;;;;;;11.80;1.90;;;4.20;99.90;;;;;;5023471;28;20219;-41
2024/01/15 04:25:45;;;;;;;4.63;1.55;;;4.30;99.90;;;;;;5023475;28;20208;-42
2024/01/15 04:28:12;;;;;;;17.40;2.47;;;4.30;99.90;;;;;;5023561;28;20566;-40
2024/01/15 04:30:38;;;;;;;13.48;2.35;;;4.20;99.90;;;;;;5023497;28;20196;-44
2024/01/15 04:33:04;;;;;;;9.20;2.28;;;4.10;99.90;;;;;;5023209;28;20184;-44
2024/01/15 04:35:30;;;;;;;9.60;1.60;;;4.00;99.90;;;;;;5023326;28;20549;-44
2024/01/15 04:37:56;;;;;;;6.75;2.00;;;4.00;99.90;;;;;;5005004;28;20192;-43
2024/01/15 04:40:22;;;;;;;13.32;1.80;;;3.90;99.90;;;;;;5023302;28;20267;-46
2024/01/15 04:42:48;;;;;;;4.15;1.67;;;3.90;99.90;;;;;;5023443;28;20658;-43
2024/01/15 04:45:14;;;;;;;5.78;1.60;;;3.80;99.90;;;;;;5023027;28;20277;-40
2024/01/15 04:47:40;;;;;;;11.63;1.95;;;3.80;99.90;;;;;;5023088;28;20212;-46
2024/01/15 04:50:06;;;;;;;6.30;1.60;;;3.70;99.90;;;;;;5023469;28;20183;-48
2024/01/15 04:52:32;;;;;;;8.10;2.08;;;3.60;99.90;;;;;;5023299;28;20199;-44
2024/01/15 04:54:58;;;;;;;5.20;1.60;;;3.60;99.90;;;;;;5023316;28;20196;-44
2024/01/15 04:57:24;;;;;;;4.18;1.33;;;3.50;99.90;;;;;;5015827;28;20227;-47
2024/01/15 04:59:50;;;;;;;7.20;1.35;;;3.50;99.90;;;;;;5023199;28;20544;-43
2024/01/15 05:02:16;;;;;;;4.65;1.02;;;3.50;99.90;;;;;;5022777;28;20192;-46
2024/01/15 05:04:41;;;;;;;7.53;1.50;;;3.40;99.90;;;;;;5018673;28;20227;-43
2024/01/15 05:07:08;;;;;;;4.80;1.48;;;3.40;99.90;;;;;;5023271;28;20208;-42
2024/01/15 05:09:34;;;;;;;7.32;1.45;;;3.40;99.90;;;;;;5022533;28;20266;-42
2024/01/15 05:12:00;;;;;;;12.05;2.03;;;3.30;99.90;;;;;;5022994;28;20192;-46
2024/01/15 05:14:25;;;;;;;8.80;2.20;;;3.40;99.90;;;;;;5019799;28;20640;-43
2024/01/15 05:16:51;;;;;;;12.38;2.05;;;3.40;99.90;;;;;;5018484;28;20206;-46
2024/01/15 05:19:18;;;;;;;14.07;2.10;;;3.40;99.90;;;;;;5018451;28;20188;-43
2024/01/15 05:21:44;;;;;;;11.27;2.17;;;3.40;99.90;;;;;;5022164;28;20284;-39
2024/01/15 05:24:10;;;;;;;12.82;2.28;;;3.30;99.90;;;;;;5020081;28;20294;-46
2024/01/15 05:26:35;;;;;;;16.30;1.95;;;3.30;99.90;;;;;;5022804;28;21415;-45
2024/01/15 05:29:01;;;;;;;13.85;2.10;;;3.30;99.90;;;;;;5022797;28;22181;-42
2024/01/15 05:31:27;;;;;;;12.40;2.28;;;3.30;99.90;;;;;;5015393;28;20176;-43
2024/01/15 05:33:53;;;;;;;11.63;1.98;;;3.30;99.90;;;;;;5022199;28;20579;-42
2024/01/15 05:36:19;;;;;;;16.35;2.20;;;3.20;99.90;;;;;;5002015;28;20266;-42
2024/01/15 05:38:45;;;;;;;12.40;2.08;;;3.10;99.90;;;;;;5022805;28;20203;-43
2024/01/15 05:41:13;;;;;;;11.70;2.30;;;3.10;99.90;;;;;;5022221;28;20188;-44
2024/01/15 05:43:38;;;;;;;9.25;2.17;;;3.00;99.90;;;;;;5021822;28;20177;-40
2024/01/15 05:46:04;;;;;;;13.73;2.33;;;2.90;99.90;;;;;;5020588;28;20321;-46
2024/01/15 05:48:30;;;;;;;15.48;2.60;;;2.90;99.90;;;;;;5022486;28;20279;-42
2024/01/15 05:50:56;;;;;;;10.50;2.25;;;2.80;99.90;;;;;;5022381;28;20223;-46
2024/01/15 05:53:22;;;;;;;13.15;2.47;;;2.80;99.90;;;;;;5022050;28;20242;-45
2024/01/15 05:55:48;;;;;;;14.90;2.45;;;2.80;99.90;;;;;;5022136;28;20219;-51
2024/01/15 05:58:13;;;;;;;18.48;2.60;;;2.80;99.90;;;;;;5017156;28;20281;-53
2024/01/15 06:00:39;;;;;;;20.42;2.80;;;2.80;99.90;;;;;;5021099;28;20222;-45
2024/01/15 06:03:05;;;;;;;16.83;3.00;;;2.90;99.90;;;;;;5021345;28;20245;-44
2024/01/15 06:05:31;;;;;;;15.80;2.85;;;2.90;99.90;;;;;;5002828;28;20273;-48
2024/01/15 06:07:57;;;;;;;10.13;2.50;;;3.00;99.90;;;;;;5017387;28;20188;-43
2024/01/15 06:10:23;;;;;;;18.17;3.13;;;3.00;99.90;;;;;;5021330;28;20810;-55
2024/01/15 06:12:49;;;;;;;14.95;2.92;;;3.00;99.90;;;;;;5021353;28;20204;-47
2024/01/15 06:15:15;;;;;;;16.10;3.40;;;3.00;99.90;;;;;;5021488;28;20218;-48
2024/01/15 06:17:41;;;;;;;13.13;2.70;;;3.00;99.90;;;;;;5022173;28;20196;-43
2024/01/15 06:20:08;;;;;;;20.27;2.85;;;2.90;99.90;;;;;;5019859;28;20219;-47
2024/01/15 06:22:36;;;;;;;18.38;3.05;;;2.90;99.90;;;;;;5020745;28;20216;-48
2024/01/15 06:25:03;;;;;;;24.15;3.20;;;2.90;99.90;;;;;;4987176;28;20604;-45
2024/01/15 06:27:29;;;;;;;17.55;2.83;;;2.80;99.90;;;;;;5000831;28;20620;-44
2024/01/15 06:29:56;;;;;;;22.08;3.45;;;2.80;99.90;;;;;;5015542;28;20188;-50
2024/01/15 06:32:21;;;;;;;14.32;3.05;;;2.80;99.90;;;;;;5017675;28;20196;-43
2024/01/15 06:34:47;;;;;;;17.90;2.90;;;2.80;99.90;;;;;;5013353;28;20198;-45
2024/01/15 06:37:13;;;;;;;16.40;3.03;;;2.80;99.90;;;;;;5021359;28;20210;-43
2024/01/15 06:39:39;;;;;;;21.05;3.10;;;2.90;99.90;;;;;;5021251;28;20188;-39
2024/01/15 06:42:05;;;;;;;20.48;3.30;;;2.90;99.90;;;;;;5021333;28;20188;-46
2024/01/15 06:44:31;;;;;;;20.60;3.20;;;3.00;99.90;;;;;;5021557;28;20216;-38
2024/01/15 06:47:02;;;;;;;20.13;2.90;;;3.00;99.90;;;;;;4997329;28;20196;-46
2024/01/15 06:49:31;;;;;;;20.50;3.17;;;3.00;99.90;;;;;;5002231;28;20219;-44
2024/01/15 06:51:57;;;;;;;11.77;2.70;;;3.00;99.90;;;;;;5015014;28;20311;-47
2024/01/15 06:54:23;;;;;;;14.80;3.08;;;3.00;99.90;;;;;;5015380;28;20208;-45
2024/01/15 06:56:50;;;;;;;18.98;3.55;;;3.00;99.90;;;;;;4999469;28;20195;-43
2024/01/15 06:59:16;;;;;;;15.35;3.35;;;3.00;99.90;;;;;;4996038;28;20572;-43
2024/01/15 07:01:42;;;;;;;15.52;3.55;;;3.00;99.90;;;;;;4981311;28;20204;-42
2024/01/15 07:04:08;;;;;;;19.75;4.10;;;3.00;99.90;;;;;;4979965;28;20189;-47
2024/01/15 07:06:34;;;;;;;21.00;3.83;;;3.00;99.90;;;;;;4979433;28;20193;-43
2024/01/15 07:09:00;;;;;;;19.05;3.45;;;3.00;99.90;;;;;;4981125;28;20192;-44
2024/01/15 07:11:26;;;;;;;10.18;3.03;;;3.00;99.90;;;;;;4980362;28;20267;-47
2024/01/15 07:13:51;;;;;;;13.60;2.35;;;3.00;99.90;;;;;;4979955;28;20220;-47
2024/01/15 07:16:17;;;;;;;7.72;2.10;;;3.00;99.90;;;;;;4963978;28;20207;-45
2024/01/15 07:18:43;;;;;;;12.40;2.20;;;3.00;99.90;;;;;;4980269;28;20193;-40
2024/01/15 07:21:10;;;;;;;13.10;2.15;;;3.00;99.90;;;;;;4963506;28;20188;-43
2024/01/15 07:23:36;;;;;;;11.98;2.30;;;2.80;99.90;;;;;;4979799;28;20227;-45
2024/01/15 07:26:02;;;;;;;10.00;2.17;;;2.80;99.90;;;;;;4978888;28;20288;-45
2024/01/15 07:28:31;;;;;;;10.00;1.88;;;2.70;99.90;;;;;;4979868;28;20185;-48
2024/01/15 07:30:57;;;;;;;12.40;2.30;;;2.70;99.90;;;;;;4980724;28;20192;-44
2024/01/15 07:33:23;;;;;;;13.88;2.05;;;2.60;99.90;;;;;;4980731;28;20193;-51
2024/01/15 07:35:49;;;;;;;13.55;2.40;;;2.60;99.90;;;;;;4984926;28;20976;-47
2024/01/15 07:38:14;;;;;;;10.75;2.55;;;2.60;99.90;;;;;;4984401;28;20661;-45
2024/01/15 07:40:40;;;;;;;10.63;2.05;;;2.50;99.90;;;;;;4984865;28;20197;-46
2024/01/15 07:43:06;;;;;;;13.35;2.13;;;2.50;99.90;;;;;;4984871;28;20189;-41
2024/01/15 07:45:32;;;;;;;15.88;2.50;;;2.50;99.90;;;;;;4983348;28;20224;-43
2024/01/15 07:47:58;;;;;;;9.18;1.88;;;2.50;99.90;;;;;;4985076;28;20198;-48
2024/01/15 07:50:24;;;;;;;12.10;2.50;;;2.60;99.90;;;;;;4984059;28;20545;-46
2024/01/15 07:52:50;;;;;;;10.60;2.17;;;2.60;99.90;;;;;;4966358;28;20201;-47
2024/01/15 07:55:16;;;;;;;16.55;2.42;;;2.70;99.90;;;;;;4967154;28;20255;-43
2024/01/15 07:57:42;;;;;;;15.20;2.47;;;2.70;99.90;;;;;;4967001;28;20263;-44
2024/01/15 08:00:09;;;;;;;12.90;2.38;;;2.80;99.90;;;;;;4983031;28;20236;-47
2024/01/15 08:02:35;;;;;;;14.57;2.38;;;2.70;99.90;;;;;;5003400;28;20284;-44
2024/01/15 08:05:00;;;;;;;20.75;2.70;;;2.70;99.90;;;;;;5004272;28;20266;-47
2024/01/15 08:07:27;;;;;;;15.25;3.00;;;2.70;99.90;;;;;;4986987;28;20584;-42
2024/01/15 08:09:53;;;;;;;15.95;3.30;;;2.70;99.90;;;;;;5007560;28;20246;-45
2024/01/15 08:12:19;;;;;;;17.83;3.58;;;2.70;99.90;;;;;;4987879;28;20196;-47
2024/01/15 08:14:45;;;;;;;9.05;3.13;;;2.80;99.90;;;;;;4970909;28;20541;-44
2024/01/15 08:17:11;;;;;;;9.77;2.30;;;2.80;99.90;;;;;;5018781;28;20199;-46
2024/01/15 08:19:38;;;;;;;13.88;2.65;;;2.80;99.90;;;;;;5004819;28;20651;-39
2024/01/15 08:22:04;;;;;;;15.55;2.50;;;2.80;99.90;;;;;;5004626;28;20193;-45
2024/01/15 08:24:31;;;;;;;10.63;2.45;;;2.80;99.90;;;;;;5006141;28;20239;-42
2024/01/15 08:26:57;;;;;;;11.00;2.22;;;2.80;99.90;;;;;;4987937;28;20279;-52
2024/01/15 08:29:24;;;;;;;14.82;2.50;;;2.70;99.90;;;;;;4972364;28;20197;-45
2024/01/15 08:31:50;;;;;;;15.10;2.72;;;2.70;99.90;;;;;;5004126;28;20202;-48
2024/01/15 08:34:16;;;;;;;8.05;2.63;;;2.70;99.90;;;;;;5005116;28;20222;-43
2024/01/15 08:36:42;;;;;;;15.25;3.63;;;2.80;99.90;;;;;;5005891;28;20193;-44
2024/01/15 08:39:08;;;;;;;7.75;2.55;;;2.90;99.90;;;;;;5003930;28;20196;-45
2024/01/15 08:41:35;;;;;;;11.13;2.90;;;2.90;99.90;;;;;;5002511;28;20199;-42
2024/01/15 08:44:02;;;;;;;14.70;3.20;;;3.00;99.90;;;;;;4985493;28;20540;-41
2024/01/15 08:46:28;;;;;;;10.13;2.78;;;3.10;99.90;;;;;;5001895;28;20679;-43
2024/01/15 08:48:54;;;;;;;8.50;2.53;;;3.10;99.90;;;;;;5005289;28;20189;-43
2024/01/15 08:51:20;;;;;;;8.30;2.20;;;3.20;99.90;;;;;;5005898;28;20682;-44
2024/01/15 08:53:46;;;;;;;9.55;2.10;;;3.30;99.90;;;;;;5002199;28;20275;-43
2024/01/15 08:56:12;;;;;;;10.55;1.98;;;3.30;99.90;;;;;;5005220;28;20195;-43
2024/01/15 08:58:38;;;;;;;11.27;2.28;;;3.30;99.90;;;;;;5004955;28;20239;-43
2024/01/15 09:01:04;;;;;;;10.38;2.28;;;3.30;99.90;;;;;;5022056;28;20219;-43
2024/01/15 09:03:30;;;;;;;11.98;2.33;;;3.30;99.90;;;;;;5022858;28;20690;-42
2024/01/15 09:05:56;;;;;;;7.20;2.10;;;3.20;99.90;;;;;;5022490;28;20215;-46
2024/01/15 09:08:22;;;;;;;11.70;2.03;;;3.30;99.90;;;;;;5021788;28;20551;-43
2024/01/15 09:10:48;;;;;;;9.90;1.85;;;3.20;99.90;;;;;;5022508;28;20691;-40
2024/01/15 09:13:14;;;;;;;12.43;2.20;;;3.20;99.90;;;;;;5022149;28;20270;-43
2024/01/15 09:15:39;;;;;;;20.25;2.70;;;3.20;99.90;;;;;;5023127;28;20649;-46
2024/01/15 09:18:05;;;;;;;7.50;1.90;;;3.20;99.90;;;;;;5022698;28;20196;-47
2024/01/15 09:20:31;;;;;;;9.88;2.67;;;3.20;99.90;;;;;;5022240;28;20671;-42
2024/01/15 09:22:57;;;;;;;13.00;2.22;;;3.20;99.90;;;;;;5022598;28;20700;-43
2024/01/15 09:25:23;;;;;;;9.90;1.92;;;3.20;99.90;;;;;;5016833;28;20258;-44
2024/01/15 09:27:49;;;;;;;13.18;1.83;;;3.20;99.90;;;;;;5016646;28;20206;-49
2024/01/15 09:30:15;;;;;;;12.02;2.60;;;3.30;99.90;;;;;;5021123;28;20192;-41
2024/01/15 09:32:41;;;;;;;9.85;2.28;;;3.30;99.90;;;;;;5011526;28;21218;-43
2024/01/15 09:35:07;;;;;;;9.38;2.28;;;3.30;99.90;;;;;;5015703;28;20200;-47
2024/01/15 09:37:33;;;;;;;7.47;2.10;;;3.30;99.90;;;;;;5021564;28;20196;-46
2024/01/15 09:39:59;;;;;;;11.52;2.10;;;3.40;99.90;;;;;;5021899;28;20278;-49
2024/01/15 09:42:25;;;;;;;14.63;2.30;;;3.40;99.90;;;;;;5021440;28;20652;-47
2024/01/15 09:44:52;;;;;;;9.23;2.30;;;3.40;99.90;;;;;;5021471;28;20215;-41
2024/01/15 09:47:20;;;;;;;9.88;2.33;;;3.40;99.90;;;;;;5021147;28;20195;-44
2024/01/15 09:49:46;;;;;;;11.18;3.40;;;3.30;99.90;;;;;;5021728;28;20273;-48
2024/01/15 09:52:12;;;;;;;15.32;4.03;;;3.40;99.90;;;;;;5014549;28;20188;-44
2024/01/15 09:54:40;;;;;;;11.90;3.72;;;3.50;99.90;;;;;;5014959;28;20212;-45
2024/01/15 09:57:07;;;;;;;7.72;2.92;;;3.60;99.90;;;;;;5016330;28;20188;-42
2024/01/15 09:59:34;;;;;;;15.75;3.65;;;3.80;99.90;;;;;;5020158;28;20227;-47
2024/01/15 10:02:01;;;;;;;22.63;4.55;;;3.80;99.90;;;;;;5021446;28;20206;-41
2024/01/15 10:04:27;;;;;;;14.65;3.30;;;3.90;99.90;;;;;;5021582;28;20211;-39
2024/01/15 10:06:56;;;;;;;11.80;3.40;;;4.00;99.90;;;;;;5019128;28;20551;-38
2024/01/15 10:09:22;;;;;;;13.55;3.25;;;3.90;99.90;;;;;;5020616;28;20511;-44
2024/01/15 10:11:48;;;;;;;19.40;3.45;;;3.90;99.90;;;;;;5014962;28;20298;-43
2024/01/15 10:14:14;;;;;;;19.23;3.30;;;3.90;99.90;;;;;;5020803;28;20591;-44
2024/01/15 10:16:40;;;;;;;12.20;2.47;;;3.90;99.90;;;;;;5020882;28;20245;-43
2024/01/15 10:19:13;;;;;;;12.88;2.33;;;3.90;99.90;;;;;;5037122;28;21272;-50
2024/01/15 10:21:39;;;;;;;10.80;2.28;;;3.90;99.90;;;;;;5037098;28;20248;-43
2024/01/15 10:24:05;;;;;;;13.45;1.95;;;3.80;99.90;;;;;;5037310;28;20191;-45
2024/01/15 10:26:32;;;;;;;10.40;2.10;;;3.70;99.90;;;;;;5037641;28;20183;-40
2024/01/15 10:29:01;;;;;;;8.07;1.80;;;3.60;99.90;;;;;;5037324;28;20278;-47
2024/01/15 10:31:28;;;;;;;14.63;2.38;;;3.60;99.90;;;;;;5036407;28;20676;-44
2024/01/15 10:33:54;;;;;;;8.40;2.20;;;3.60;99.90;;;;;;5036004;28;20194;-45
2024/01/15 10:36:20;;;;;;;12.45;2.03;;;3.70;99.90;;;;;;5036421;28;20199;-46
2024/01/15 10:38:47;;;;;;;13.27;2.40;;;3.80;99.90;;;;;;5037305;28;20239;-42
2024/01/15 10:41:12;;;;;;;17.38;2.35;;;3.90;99.90;;;;;;5037674;28;20554;-42
2024/01/15 10:43:41;;;;;;;15.73;2.70;;;4.00;99.90;;;;;;5036759;28;20195;-41
2024/01/15 10:46:07;;;;;;;12.57;2.85;;;4.30;99.90;;;;;;5037471;28;20199;-43
2024/01/15 10:48:35;;;;;;;11.27;2.97;;;4.40;99.90;;;;;;5037080;28;20210;-43
2024/01/15 10:51:10;;;;;;;13.48;3.38;;;4.50;99.90;;;;;;5037460;28;20274;-44
2024/01/15 10:53:40;;;;;;;8.88;2.10;;;4.50;99.90;;;;;;5035721;28;20202;-41
2024/01/15 10:56:07;;;;;;;7.22;1.80;;;4.50;99.90;;;;;;5036301;28;20203;-39
2024/01/15 10:58:34;;;;;;;1.80;0.75;;;4.40;99.90;;;;;;5036453;28;20699;-49
2024/01/15 11:01:01;;;;;;;4.82;1.20;;;4.30;99.90;;;;;;5037640;28;20191;-42
2024/01/15 11:03:27;;;;;;;3.40;1.10;;;4.10;99.90;;;;;;5033500;28;20197;-44
2024/01/15 11:05:53;;;;;;;6.18;1.00;;;4.10;99.90;;;;;;5036636;28;21265;-41
2024/01/15 11:08:20;;;;;;;4.80;1.00;;;4.00;99.90;;;;;;5035693;28;20199;-40
2024/01/15 11:10:49;;;;;;;3.65;0.90;;;3.90;99.90;;;;;;5036486;28;20203;-39
2024/01/15 11:13:39;;;;;;;5.15;1.15;;;4.00;99.90;;;;;;5036936;28;20196;-43
2024/01/15 11:16:07;;;;;;;4.15;1.30;;;4.00;99.90;;;;;;5036962;28;20191;-41
2024/01/15 11:19:06;;;;;;;5.22;1.15;;;4.00;99.90;;;;;;5035510;28;20274;-41
2024/01/15 11:21:31;;;;;;;5.55;1.58;;;4.00;99.90;;;;;;5036237;28;21048;-47
2024/01/15 11:23:59;;;;;;;3.75;1.30;;;4.00;99.90;;;;;;5036323;28;20202;-46
2024/01/15 11:26:38;;;;;;;7.05;1.33;;;4.00;99.90;;;;;;5036801;28;20211;-41
2024/01/15 11:29:10;;;;;;;5.25;1.60;;;4.00;99.90;;;;;;5031571;28;20648;-50
2024/01/15 11:31:39;;;;;;;9.05;1.60;;;4.00;99.90;;;;;;5020978;28;20207;-52
2024/01/15 11:34:09;;;;;;;2.50;1.00;;;4.10;99.90;;;;;;5022656;28;20188;-47
2024/01/15 11:36:52;;;;;;;3.95;1.15;;;4.10;99.90;;;;;;5022928;28;20206;-49
2024/01/15 11:39:27;;;;;;;2.55;0.90;;;4.10;99.90;;;;;;5038585;28;20192;-49
2024/01/15 11:42:01;;;;;;;3.90;1.00;;;4.00;99.90;;;;;;5022024;28;20187;-49
2024/01/15 11:44:27;;;;;;;4.43;1.30;;;4.00;99.90;;;;;;5022425;28;20187;-50
2024/01/15 11:47:05;;;;;;;7.18;1.25;;;4.00;99.90;;;;;;5020798;28;20202;-53
2024/01/15 11:49:56;;;;;;;4.30;1.30;;;4.00;99.90;;;;;;5022284;28;20199;-47
2024/01/15 11:52:23;;;;;;;2.28;0.98;;;4.00;99.90;;;;;;5020700;28;20279;-46
2024/01/15 11:55:05;;;;;;;2.63;1.10;;;4.00;99.90;;;;;;5022490;28;20196;-52
2024/01/15 11:57:43;;;;;;;1.40;0.85;;;3.90;99.90;;;;;;5022449;28;20290;-51
2024/01/15 12:00:11;;;;;;;1.75;1.10;;;3.80;99.90;;;;;;5021358;28;20595;-51
2024/01/15 12:02:41;;;;;;;7.45;1.02;;;3.60;99.90;;;;;;5005971;28;20648;-53
2024/01/15 12:05:09;;;;;;;4.90;1.30;;;3.40;99.90;;;;;;5022293;28;20302;-48
2024/01/15 12:07:35;;;;;;;4.68;1.33;;;3.20;99.90;;;;;;5021850;28;20234;-54
2024/01/15 12:10:02;;;;;;;11.35;1.40;;;3.20;99.90;;;;;;5022295;28;20655;-48
2024/01/15 12:12:50;;;;;;;11.95;1.70;;;3.10;99.90;;;;;;5022690;28;20307;-54
2024/01/15 12:15:16;;;;;;;7.28;1.30;;;3.00;99.90;;;;;;5018372;28;20207;-49
2024/01/15 12:17:42;;;;;;;6.80;1.67;;;3.00;99.90;;;;;;5022043;28;20274;-49
2024/01/15 12:20:09;;;;;;;11.73;2.00;;;3.10;99.90;;;;;;5021594;28;20690;-50
2024/01/15 12:22:35;;;;;;;17.42;2.20;;;3.10;99.90;;;;;;5021665;28;20311;-52
2024/01/15 12:25:01;;;;;;;11.50;1.58;;;3.20;99.90;;;;;;5022487;28;20180;-52
2024/01/15 12:27:27;;;;;;;9.80;1.77;;;3.30;99.90;;;;;;5021141;28;20199;-53
2024/01/15 12:29:53;;;;;;;11.80;2.22;;;3.30;99.90;;;;;;5022006;28;20188;-51
2024/01/15 12:32:21;;;;;;;6.20;1.65;;;3.40;99.90;;;;;;5020583;28;20625;-54
2024/01/15 12:34:48;;;;;;;7.88;2.17;;;3.40;99.90;;;;;;5021891;28;20192;-51
2024/01/15 12:37:14;;;;;;;12.93;2.13;;;3.50;99.90;;;;;;5021225;28;20307;-49
2024/01/15 12:39:44;;;;;;;9.55;1.48;;;3.60;99.90;;;;;;5021966;28;20669;-49
2024/01/15 12:42:10;;;;;;;15.45;1.95;;;3.70;99.90;;;;;;5003004;28;20188;-54
2024/01/15 12:44:39;;;;;;;11.48;1.70;;;3.80;99.90;;;;;;5020774;28;20215;-53
2024/01/15 12:47:06;;;;;;;12.30;1.73;;;3.90;99.90;;;;;;5021204;28;20188;-54